Terminal Aerodrome Forecast
Issued by NWS Wilmington, NC

Home | Current Version | Previous Version | Text Only | Print | Product List | Glossary On
Versions: 1 2 3 4 5 6 7 8 9 10 11 12 13 14 15 16 17 18 19 20 21 22 23 24 25
072
FTUS42 KILM 241721
TAFMYR
TAF
KMYR 241721Z 2418/2518 20015G27KT P6SM VCSH OVC030
      TEMPO 2422/2502 VRB20G45KT 2SM +TSRA OVC010CB
     FM250200 21014G27KT 5SM SHRA VCTS OVC015CB
     FM250600 22011G18KT P6SM BKN015
     FM250900 23013G21KT P6SM SCT015
     FM251100 23013G24KT P6SM SCT250
     FM251500 24014G24KT P6SM FEW200=

USA.gov is the U.S. government's official web portal to all federal, state and local government web resources and services.